Tyler Pounds Regional Airport
KTYR : now visible

Airfield :











YOU CAN JOIN US ON...

 
LOGIN :

Register | Disclaimer

   EN    FR    IT 

 









Legend :    VFR   Marginal VFR   IFR   Intensive IFR   Very Intensive IFR
Visi :
Ceiling :
>= 8 km
>= 3000ft
5 to 8 km
1000 to 3000 ft
1500m to 5 km
500 to 1000 ft
800 to 1500m
200 to 500 ft
< 800m
< 200 ft
Symbols :   Thunderstorms  Fog  Heavy snow  Heavy precipitations  Wind > 20 kt






- Airport Elevation : 544 ft
- IATA code : TYR


KTYR - Tyler Pounds Regional

CURRENT METAR :
  • 161053Z AUTO 35008KT 7SM OVC005 12/10 A2982 RMK AO2 SLP093 T01170100

EXPIRED METARs :
  • 160953Z AUTO 01007KT 10SM OVC007 13/10 A2982 RMK AO2 SLP090 T01280100
  • 160853Z AUTO 36006KT 8SM OVC007 13/11 A2982 RMK AO2 SLP091 T01280106 55002
  • 160843Z AUTO 02008KT 9SM BKN007 OVC016 13/11 A2981 RMK AO2 CIG 007V010 T01280106
  • 160816Z AUTO 02006KT 9SM FEW007 OVC015 13/11 A2981 RMK AO2 T01330106

TAF KTYR
Valid from the 16 at 11:00 until the 17 at 06:00 UTC


161058Z 1611/1706 36007KT P6SM VCSH OVC005
FM161200 34007KT 5SM -SHRA BR OVC005
FM161700 31013G18KT P6SM OVC010



MET'MAP, your aeronautical weather chart ! - Copyright ORBIFLY December 2007 - Disclaimer

ORBIFLY MET'MAP TEAM :

Programming & Development : Alexandra Zaïnal
Concept & original design : Baudouin d'Aumeries
Assistance for programming : Marc-Olivier Méhu
Technical & hardware support : Manuel Goepfert

Contact : metmap@orbifly.com




SOURCES & CREDITS :

   NOAA       Earth
Advisory